Time;durP1;ratioP1;P1;durP2;ratioP2;P2;SDS_P1;SDS_P2;PMS_P1;PMS_P2;Temp;Humidity;BMP_temperature;BMP_pressure;BME280_temperature;BME280_humidity;BME280_pressure;Samples;Min_cycle;Max_cycle;Signal;HPM_P1;HPM_P2
2022/01/17 00:00:16;;;;;;;18.25;8.05;;;-1.10;99.90;;;;;;5096012;28;20020;-76
2022/01/17 00:02:43;;;;;;;16.60;8.85;;;-1.10;99.90;;;;;;5096163;28;20099;-76
2022/01/17 00:05:10;;;;;;;18.98;8.77;;;-1.10;99.90;;;;;;5095831;28;20038;-76
2022/01/17 00:07:36;;;;;;;14.93;7.85;;;-1.10;99.90;;;;;;5094815;28;20067;-76
2022/01/17 00:10:05;;;;;;;18.33;8.52;;;-1.10;99.90;;;;;;5095871;28;20020;-76
2022/01/17 00:12:33;;;;;;;22.17;10.32;;;-1.10;99.90;;;;;;5096239;28;20483;-76
2022/01/17 00:14:59;;;;;;;21.75;10.68;;;-1.00;99.90;;;;;;5095540;28;20020;-76
2022/01/17 00:17:35;;;;;;;19.40;10.27;;;-1.00;99.90;;;;;;5094133;28;20020;-76
2022/01/17 00:20:10;;;;;;;23.45;10.65;;;-0.90;99.90;;;;;;5095816;28;20027;-76
2022/01/17 00:22:36;;;;;;;19.75;9.65;;;-0.90;99.90;;;;;;5096033;28;20024;-76
2022/01/17 00:25:03;;;;;;;19.02;9.95;;;-0.90;99.90;;;;;;5095344;28;20031;-76
2022/01/17 00:27:31;;;;;;;18.58;9.68;;;-0.90;99.90;;;;;;5095275;28;20480;-76
2022/01/17 00:29:57;;;;;;;17.45;8.48;;;-0.90;99.90;;;;;;5095402;28;20031;-76
2022/01/17 00:32:23;;;;;;;19.63;9.00;;;-0.90;99.90;;;;;;5095610;28;20020;-76
2022/01/17 00:34:48;;;;;;;20.73;10.07;;;-0.80;99.90;;;;;;5094535;28;20434;-76
2022/01/17 00:37:14;;;;;;;17.48;9.77;;;-0.80;99.90;;;;;;5095090;28;20043;-76
2022/01/17 00:39:39;;;;;;;22.42;10.27;;;-0.80;99.90;;;;;;5095446;28;20107;-76
2022/01/17 00:42:05;;;;;;;18.77;8.80;;;-0.80;99.90;;;;;;5095463;28;20077;-76
2022/01/17 00:44:31;;;;;;;19.30;9.65;;;-0.80;99.90;;;;;;5095412;28;20035;-76
2022/01/17 00:46:57;;;;;;;17.85;9.55;;;-0.80;99.90;;;;;;5093728;28;20024;-76
2022/01/17 00:49:23;;;;;;;22.13;10.57;;;-0.80;99.90;;;;;;5094959;28;20089;-76
2022/01/17 00:51:49;;;;;;;17.83;9.43;;;-0.80;99.90;;;;;;5095216;28;20032;-76
2022/01/17 00:54:15;;;;;;;17.65;9.73;;;-0.80;99.90;;;;;;5094813;28;20082;-76
2022/01/17 00:56:40;;;;;;;19.00;10.60;;;-0.80;99.90;;;;;;5093547;28;20073;-76
2022/01/17 00:59:06;;;;;;;17.67;9.48;;;-0.80;99.90;;;;;;5094747;28;20016;-76
2022/01/17 01:01:32;;;;;;;19.10;9.98;;;-0.80;99.90;;;;;;5092994;28;20169;-76
2022/01/17 01:03:58;;;;;;;17.65;9.38;;;-0.80;99.90;;;;;;5091354;28;20489;-76
2022/01/17 01:06:23;;;;;;;18.10;9.82;;;-0.80;99.90;;;;;;5094183;28;20035;-76
2022/01/17 01:08:49;;;;;;;22.90;10.18;;;-0.80;99.90;;;;;;5094792;28;20105;-76
2022/01/17 01:11:14;;;;;;;20.50;9.82;;;-0.80;99.90;;;;;;5094505;28;20028;-76
2022/01/17 01:13:40;;;;;;;20.50;10.18;;;-0.80;99.90;;;;;;5094630;28;20027;-76
2022/01/17 01:16:22;;;;;;;17.15;9.48;;;-0.80;99.90;;;;;;5093104;28;20024;-76
2022/01/17 01:27:41;;;;;;;17.25;9.98;;;-0.70;99.90;;;;;;5075241;28;20074;-76
2022/01/17 01:29:55;;;;;;;19.33;9.48;;;-0.70;99.90;;;;;;5075051;28;20499;-76
2022/01/17 01:32:25;;;;;;;22.60;10.18;;;-0.80;99.90;;;;;;5074223;28;20476;-76
2022/01/17 01:34:54;;;;;;;22.17;10.43;;;-0.80;99.90;;;;;;5074008;28;20396;-75
2022/01/17 01:37:20;;;;;;;19.38;9.50;;;-0.80;99.90;;;;;;5074211;28;20043;-75
2022/01/17 01:39:49;;;;;;;21.88;10.75;;;-0.80;99.90;;;;;;5074209;28;20464;-75
2022/01/17 01:42:18;;;;;;;23.63;11.15;;;-0.90;99.90;;;;;;5055899;28;20029;-75
2022/01/17 01:44:44;;;;;;;22.90;11.82;;;-0.90;99.90;;;;;;5073929;28;20025;-75
2022/01/17 01:47:11;;;;;;;19.30;10.13;;;-0.90;99.90;;;;;;5074050;28;20032;-75
2022/01/17 01:49:37;;;;;;;22.50;10.45;;;-0.90;99.90;;;;;;5073698;28;20472;-76
2022/01/17 01:52:03;;;;;;;20.52;10.82;;;-0.90;99.90;;;;;;5073677;28;20033;-75
2022/01/17 01:54:28;;;;;;;22.20;10.30;;;-0.90;99.90;;;;;;5073822;28;20032;-75
2022/01/17 01:56:54;;;;;;;19.92;10.18;;;-0.90;99.90;;;;;;5074047;28;20021;-76
2022/01/17 01:59:21;;;;;;;24.30;11.95;;;-0.90;99.90;;;;;;5055696;28;20028;-75
2022/01/17 02:01:49;;;;;;;24.13;11.70;;;-0.90;99.90;;;;;;5074210;28;20021;-75
2022/01/17 02:04:15;;;;;;;22.05;10.60;;;-0.90;99.90;;;;;;5073838;28;20024;-75
2022/01/17 02:06:42;;;;;;;18.73;9.60;;;-0.90;99.90;;;;;;5073506;28;20029;-75
2022/01/17 02:09:08;;;;;;;20.77;10.68;;;-0.90;99.90;;;;;;5073710;28;20477;-76
2022/01/17 02:11:35;;;;;;;21.65;11.50;;;-1.00;99.90;;;;;;5055777;28;20048;-75
2022/01/17 02:14:01;;;;;;;20.15;10.88;;;-1.00;99.90;;;;;;5073698;28;20075;-75
2022/01/17 02:16:28;;;;;;;22.25;11.32;;;-0.90;99.90;;;;;;5073428;28;20021;-76
2022/01/17 02:18:53;;;;;;;21.08;10.88;;;-0.90;99.90;;;;;;5073453;28;20107;-76
2022/01/17 02:21:31;;;;;;;22.35;10.38;;;-0.90;99.90;;;;;;5073343;28;20100;-76
2022/01/17 02:23:58;;;;;;;20.98;11.15;;;-0.90;99.90;;;;;;5055321;28;20024;-76
2022/01/17 02:26:25;;;;;;;23.30;10.77;;;-0.90;99.90;;;;;;5055343;28;20035;-76
2022/01/17 02:28:53;;;;;;;27.48;11.90;;;-0.90;99.90;;;;;;5073318;28;20023;-76
2022/01/17 02:31:20;;;;;;;26.55;12.15;;;-0.90;99.90;;;;;;5073217;28;20024;-76
2022/01/17 02:33:46;;;;;;;25.50;12.50;;;-0.90;99.90;;;;;;5073113;28;20473;-76
2022/01/17 02:36:11;;;;;;;25.13;11.68;;;-0.90;99.90;;;;;;5073216;28;20065;-76
2022/01/17 02:38:41;;;;;;;23.73;11.50;;;-0.90;99.90;;;;;;5073164;28;20024;-76
2022/01/17 02:41:07;;;;;;;21.20;10.80;;;-0.90;99.90;;;;;;5073447;28;20111;-76
2022/01/17 02:43:33;;;;;;;21.15;11.20;;;-0.90;99.90;;;;;;5073138;28;20092;-76
2022/01/17 02:48:29;;;;;;;17.80;9.98;;;-0.90;99.90;;;;;;5073348;28;20461;-76
2022/01/17 02:50:55;;;;;;;17.95;10.10;;;-0.90;99.90;;;;;;5072995;28;20051;-76
2022/01/17 02:53:21;;;;;;;18.38;9.50;;;-0.90;99.90;;;;;;5073232;28;20024;-76
2022/01/17 02:55:50;;;;;;;22.05;10.80;;;-1.00;99.90;;;;;;5073338;28;20031;-76
2022/01/17 02:58:19;;;;;;;22.20;10.73;;;-0.90;99.90;;;;;;5076602;28;20075;-76
2022/01/17 03:00:46;;;;;;;23.95;11.02;;;-0.90;99.90;;;;;;5076825;28;20028;-76
2022/01/17 03:03:23;;;;;;;20.15;10.40;;;-0.90;99.90;;;;;;5058524;28;20035;-76
2022/01/17 03:05:49;;;;;;;30.65;14.48;;;-0.90;99.90;;;;;;5077395;28;20033;-76
2022/01/17 03:08:20;;;;;;;26.38;12.30;;;-0.90;99.90;;;;;;5077456;28;20390;-76
2022/01/17 03:10:49;;;;;;;30.45;14.25;;;-0.90;99.90;;;;;;5076996;28;20073;-76
2022/01/17 03:13:25;;;;;;;25.05;13.27;;;-0.90;99.90;;;;;;5058549;28;20028;-76
2022/01/17 03:15:55;;;;;;;21.60;10.90;;;-0.90;99.90;;;;;;5076830;28;20025;-76
2022/01/17 03:18:21;;;;;;;22.38;12.10;;;-0.90;99.90;;;;;;5058482;28;20025;-76
2022/01/17 03:20:47;;;;;;;22.58;11.07;;;-0.90;99.90;;;;;;5058499;28;20025;-76
2022/01/17 03:23:13;;;;;;;23.13;11.57;;;-0.90;99.90;;;;;;5076318;28;20020;-76
2022/01/17 03:25:39;;;;;;;25.70;12.60;;;-0.90;99.90;;;;;;5076254;28;20040;-76
2022/01/17 03:28:05;;;;;;;22.40;11.00;;;-0.80;99.90;;;;;;5077300;28;20023;-76
2022/01/17 03:30:33;;;;;;;21.70;10.85;;;-0.80;99.90;;;;;;5076269;28;20532;-76
2022/01/17 03:33:00;;;;;;;24.25;11.63;;;-0.80;99.90;;;;;;5076071;28;20036;-76
2022/01/17 03:35:26;;;;;;;21.80;11.25;;;-0.80;99.90;;;;;;5076115;28;20519;-76
2022/01/17 03:37:52;;;;;;;26.10;11.95;;;-0.80;99.90;;;;;;5076042;28;20021;-76
2022/01/17 03:40:18;;;;;;;24.77;12.15;;;-0.80;99.90;;;;;;5058043;28;20031;-76
2022/01/17 03:42:44;;;;;;;26.35;13.07;;;-0.80;99.90;;;;;;5076014;28;20025;-76
2022/01/17 03:45:10;;;;;;;26.20;13.55;;;-0.80;99.90;;;;;;5058042;28;20063;-76
2022/01/17 03:47:40;;;;;;;27.38;13.43;;;-0.80;99.90;;;;;;5075906;28;20085;-76
2022/01/17 03:50:11;;;;;;;27.05;13.85;;;-0.80;99.90;;;;;;5076261;28;20130;-76
2022/01/17 03:52:39;;;;;;;30.20;15.23;;;-0.70;99.90;;;;;;5076137;28;20071;-76
2022/01/17 03:55:09;;;;;;;29.88;15.05;;;-0.70;99.90;;;;;;5075707;28;20408;-76
2022/01/17 03:57:35;;;;;;;31.38;15.18;;;-0.70;99.90;;;;;;5075612;28;20465;-76
2022/01/17 04:00:02;;;;;;;29.17;15.00;;;-0.70;99.90;;;;;;5075680;28;20024;-76
2022/01/17 04:02:28;;;;;;;27.80;14.38;;;-0.60;99.90;;;;;;5057962;28;20027;-76
2022/01/17 04:04:54;;;;;;;29.23;14.15;;;-0.60;99.90;;;;;;5075768;28;20115;-76
2022/01/17 04:07:19;;;;;;;30.20;14.82;;;-0.60;99.90;;;;;;5075645;28;20036;-76
2022/01/17 04:09:45;;;;;;;28.48;13.52;;;-0.60;99.90;;;;;;5075477;28;20074;-76
2022/01/17 04:12:11;;;;;;;28.95;14.70;;;-0.60;99.90;;;;;;5075582;28;20025;-76
2022/01/17 04:14:38;;;;;;;31.40;16.17;;;-0.60;99.90;;;;;;5075360;28;20029;-76
2022/01/17 04:17:06;;;;;;;32.80;15.38;;;-0.60;99.90;;;;;;5075377;28;20091;-76
2022/01/17 04:19:32;;;;;;;27.95;14.52;;;-0.60;99.90;;;;;;5057318;28;20016;-76
2022/01/17 04:21:58;;;;;;;33.67;14.98;;;-0.50;99.90;;;;;;5075245;28;20029;-76
2022/01/17 04:24:24;;;;;;;28.55;14.65;;;-0.50;99.90;;;;;;5057646;28;20028;-76
2022/01/17 04:26:50;;;;;;;26.33;13.75;;;-0.50;99.90;;;;;;5075343;28;20032;-76
2022/01/17 04:29:15;;;;;;;26.80;14.05;;;-0.50;99.90;;;;;;5057308;28;20039;-76
2022/01/17 04:31:41;;;;;;;27.92;14.52;;;-0.50;99.90;;;;;;5075046;28;20443;-76
2022/01/17 04:34:07;;;;;;;27.35;13.82;;;-0.50;99.90;;;;;;5074956;28;20024;-76
2022/01/17 04:36:33;;;;;;;30.63;13.70;;;-0.50;99.90;;;;;;5057007;28;20384;-76
2022/01/17 04:38:58;;;;;;;29.85;14.60;;;-0.60;99.90;;;;;;5074968;28;20020;-76
2022/01/17 04:41:35;;;;;;;28.52;13.77;;;-0.60;99.90;;;;;;5075219;28;20024;-76
2022/01/17 04:45:07;;;;;;;32.28;13.45;;;-0.60;99.90;;;;;;5075128;28;20032;-76
2022/01/17 04:46:47;;;;;;;27.27;13.50;;;-0.50;99.90;;;;;;5074570;28;20024;-75
2022/01/17 04:49:13;;;;;;;28.35;14.02;;;-0.50;99.90;;;;;;5074903;28;20027;-75
2022/01/17 04:51:39;;;;;;;26.10;13.75;;;-0.30;99.90;;;;;;5074774;28;20496;-75
2022/01/17 04:54:35;;;;;;;26.58;14.30;;;-0.40;99.90;;;;;;5074868;28;20032;-75
2022/01/17 04:56:53;;;;;;;32.95;13.93;;;-0.50;99.90;;;;;;5073978;28;20375;-75
2022/01/17 04:59:19;;;;;;;27.35;13.65;;;-0.50;99.90;;;;;;5056658;28;20107;-76
2022/01/17 05:01:44;;;;;;;27.42;13.75;;;-0.60;99.90;;;;;;5074734;28;20020;-76
2022/01/17 05:04:10;;;;;;;28.05;14.60;;;-0.60;99.90;;;;;;5073870;28;20040;-76
2022/01/17 05:06:36;;;;;;;30.35;15.30;;;-0.60;99.90;;;;;;5073758;28;20024;-76
2022/01/17 05:09:03;;;;;;;31.23;15.52;;;-0.60;99.90;;;;;;5073852;28;20082;-76
2022/01/17 05:11:30;;;;;;;30.55;14.73;;;-0.60;99.90;;;;;;5073711;28;20029;-76
2022/01/17 05:13:56;;;;;;;33.95;15.68;;;-0.60;99.90;;;;;;5073706;28;20025;-76
2022/01/17 05:16:30;;;;;;;34.60;17.23;;;-0.60;99.90;;;;;;5073233;28;20430;-76
2022/01/17 05:21:41;;;;;;;30.63;15.90;;;-0.60;99.90;;;;;;5092560;28;20059;-76
2022/01/17 05:24:06;;;;;;;29.70;15.30;;;-0.60;99.90;;;;;;5082855;28;20484;-75
2022/01/17 05:26:32;;;;;;;28.02;15.02;;;-0.60;99.90;;;;;;5093251;28;20043;-76
2022/01/17 05:28:57;;;;;;;31.00;14.95;;;-0.60;99.90;;;;;;5093416;28;20472;-76
2022/01/17 05:31:23;;;;;;;29.10;15.15;;;-0.60;99.90;;;;;;5093750;28;20027;-76
2022/01/17 05:33:49;;;;;;;98.00;32.92;;;-0.60;99.90;;;;;;5093296;28;20049;-76
2022/01/17 05:36:15;;;;;;;137.25;47.45;;;-0.60;99.90;;;;;;5093256;28;20032;-76
2022/01/17 05:38:40;;;;;;;128.82;44.65;;;-0.60;99.90;;;;;;5075065;28;20031;-76
2022/01/17 05:41:06;;;;;;;94.40;33.92;;;-0.60;99.90;;;;;;5093306;28;20020;-76
2022/01/17 05:43:32;;;;;;;65.97;26.35;;;-0.60;99.90;;;;;;5093210;28;20104;-76
2022/01/17 05:45:58;;;;;;;42.05;20.48;;;-0.60;99.90;;;;;;5093094;28;20032;-76
2022/01/17 05:48:23;;;;;;;48.30;20.75;;;-0.60;99.90;;;;;;5093086;28;20063;-76
2022/01/17 05:50:49;;;;;;;40.72;19.33;;;-0.60;99.90;;;;;;5092903;28;20028;-76
2022/01/17 05:53:15;;;;;;;38.35;18.42;;;-0.60;99.90;;;;;;5074755;28;20028;-76
2022/01/17 05:55:41;;;;;;;35.45;17.33;;;-0.60;99.90;;;;;;5075125;28;20109;-76
2022/01/17 05:58:07;;;;;;;30.92;15.77;;;-0.60;99.90;;;;;;5092846;28;20384;-76
2022/01/17 06:00:33;;;;;;;32.45;16.08;;;-0.60;99.90;;;;;;5093082;28;20395;-76
2022/01/17 06:03:17;;;;;;;29.08;14.43;;;-0.60;99.90;;;;;;5093382;28;20091;-76
2022/01/17 06:05:45;;;;;;;32.67;17.33;;;-0.60;99.90;;;;;;5094401;28;20101;-76
2022/01/17 06:08:11;;;;;;;35.97;18.25;;;-0.60;99.90;;;;;;5094557;28;20024;-76
2022/01/17 06:10:38;;;;;;;36.92;17.88;;;-0.60;99.90;;;;;;5093938;28;20096;-76
2022/01/17 06:13:04;;;;;;;37.08;17.35;;;-0.60;99.90;;;;;;5093548;28;20482;-76
2022/01/17 06:15:30;;;;;;;34.20;17.90;;;-0.60;99.90;;;;;;5075487;28;20066;-76
2022/01/17 06:17:56;;;;;;;39.95;19.52;;;-0.70;99.90;;;;;;5075628;28;20032;-76
2022/01/17 06:20:21;;;;;;;38.90;18.70;;;-0.60;99.90;;;;;;5075426;28;20020;-76
2022/01/17 06:22:47;;;;;;;43.90;21.45;;;-0.70;99.90;;;;;;5093604;28;20073;-76
2022/01/17 06:25:13;;;;;;;40.15;18.15;;;-0.70;99.90;;;;;;5093513;28;20016;-76
2022/01/17 06:27:38;;;;;;;41.00;18.80;;;-0.70;99.90;;;;;;5093367;28;20035;-76
2022/01/17 06:30:05;;;;;;;33.58;16.15;;;-0.70;99.90;;;;;;5093687;28;20024;-76
2022/01/17 06:32:31;;;;;;;29.33;14.70;;;-0.70;99.90;;;;;;5096062;28;20399;-76
2022/01/17 06:34:57;;;;;;;25.00;13.95;;;-0.70;99.90;;;;;;5079182;28;20031;-76
2022/01/17 06:37:24;;;;;;;28.77;13.95;;;-0.70;99.90;;;;;;5097408;28;20098;-76
2022/01/17 06:39:53;;;;;;;36.80;16.75;;;-0.60;99.90;;;;;;5097453;28;20154;-76
2022/01/17 06:42:19;;;;;;;34.50;15.98;;;-0.60;99.90;;;;;;5097512;28;20024;-76
2022/01/17 06:44:45;;;;;;;27.42;13.45;;;-0.60;99.90;;;;;;5097548;28;20028;-76
2022/01/17 06:47:10;;;;;;;31.48;13.48;;;-0.70;99.90;;;;;;5097290;28;20357;-76
2022/01/17 06:49:36;;;;;;;28.02;13.77;;;-0.60;99.90;;;;;;5097577;28;20028;-76
2022/01/17 06:52:02;;;;;;;32.97;14.85;;;-0.60;99.90;;;;;;5097283;28;20437;-76
2022/01/17 06:54:28;;;;;;;27.63;14.07;;;-0.60;99.90;;;;;;5097141;28;20391;-76
2022/01/17 06:56:53;;;;;;;33.50;15.32;;;-0.60;99.90;;;;;;5097174;28;20024;-76
2022/01/17 06:59:19;;;;;;;42.55;17.45;;;-0.60;99.90;;;;;;5097217;28;20016;-76
2022/01/17 07:01:45;;;;;;;37.88;17.65;;;-0.60;99.90;;;;;;5079091;28;20110;-76
2022/01/17 07:04:11;;;;;;;40.65;17.42;;;-0.50;99.90;;;;;;5097250;28;20503;-76
2022/01/17 07:06:38;;;;;;;33.30;16.70;;;-0.60;99.90;;;;;;5097272;28;20103;-76
2022/01/17 07:09:05;;;;;;;32.65;16.02;;;-0.60;99.90;;;;;;5097108;28;20149;-76
2022/01/17 07:11:38;;;;;;;29.77;15.88;;;-0.50;99.90;;;;;;5078851;28;20028;-76
2022/01/17 07:14:11;;;;;;;36.97;17.55;;;-0.60;99.90;;;;;;5097150;28;20020;-76
2022/01/17 07:16:39;;;;;;;36.20;17.80;;;-0.60;99.90;;;;;;5078565;28;20024;-76
2022/01/17 07:19:05;;;;;;;36.40;18.38;;;-0.50;99.90;;;;;;5097560;28;20464;-76
2022/01/17 07:21:32;;;;;;;37.35;18.73;;;-0.50;99.90;;;;;;5097889;28;20028;-76
2022/01/17 07:23:59;;;;;;;33.83;17.17;;;-0.60;99.90;;;;;;5096994;28;20189;-76
2022/01/17 07:26:25;;;;;;;47.35;23.27;;;-0.60;99.90;;;;;;5097170;28;20024;-76
2022/01/17 07:28:50;;;;;;;37.20;17.48;;;-0.60;99.90;;;;;;5096882;28;20090;-76
2022/01/17 07:31:17;;;;;;;37.10;17.80;;;-0.50;99.90;;;;;;5096564;28;20027;-76
2022/01/17 07:33:43;;;;;;;36.63;18.42;;;-0.50;99.90;;;;;;5096624;28;20016;-76
2022/01/17 07:36:08;;;;;;;35.45;18.20;;;-0.40;99.90;;;;;;5096652;28;20020;-76
2022/01/17 07:38:35;;;;;;;34.85;18.45;;;-0.50;99.90;;;;;;5096525;28;20058;-76
2022/01/17 07:41:01;;;;;;;38.78;19.50;;;-0.40;99.90;;;;;;5078284;28;20024;-76
2022/01/17 07:43:27;;;;;;;42.55;20.58;;;-0.40;99.90;;;;;;5096245;28;20122;-76
2022/01/17 07:46:55;;;;;;;40.85;20.27;;;-0.30;99.90;;;;;;5096639;28;20032;-76
2022/01/17 07:51:32;;;;;;;35.58;17.77;;;-0.40;99.90;;;;;;5096575;28;20035;-76
2022/01/17 07:53:58;;;;;;;32.25;17.00;;;-0.40;99.90;;;;;;5096291;28;20016;-76
2022/01/17 07:56:25;;;;;;;39.72;20.05;;;-0.30;99.90;;;;;;5096339;28;20495;-76
2022/01/17 07:58:50;;;;;;;37.95;18.67;;;-0.30;99.90;;;;;;5095893;28;20024;-76
2022/01/17 08:01:16;;;;;;;38.80;19.15;;;-0.20;99.90;;;;;;5095756;28;20079;-76
2022/01/17 08:03:42;;;;;;;44.38;21.55;;;-0.20;99.90;;;;;;5077564;28;20188;-76
2022/01/17 08:06:08;;;;;;;36.72;19.35;;;-0.20;99.90;;;;;;5096074;28;20024;-76
2022/01/17 08:08:34;;;;;;;47.80;22.35;;;-0.20;99.90;;;;;;5096056;28;20388;-76
2022/01/17 08:11:00;;;;;;;38.58;19.50;;;-0.20;99.90;;;;;;5095614;28;20077;-76
2022/01/17 08:13:26;;;;;;;42.63;20.63;;;-0.20;99.90;;;;;;5095623;28;20118;-76
2022/01/17 08:15:51;;;;;;;36.03;18.45;;;-0.10;99.90;;;;;;5095860;28;20103;-76
2022/01/17 08:18:17;;;;;;;44.75;21.45;;;-0.10;99.90;;;;;;5077288;28;20024;-76
2022/01/17 08:20:43;;;;;;;35.88;17.77;;;-0.10;99.90;;;;;;5096101;28;20129;-77
2022/01/17 08:23:10;;;;;;;37.60;18.75;;;-0.10;99.90;;;;;;5095458;28;20020;-76
2022/01/17 08:25:37;;;;;;;33.97;17.00;;;-0.20;99.90;;;;;;5095381;28;20055;-76
2022/01/17 08:28:03;;;;;;;37.47;19.40;;;-0.20;99.90;;;;;;5095383;28;20017;-77
2022/01/17 08:30:31;;;;;;;43.00;20.05;;;-0.10;99.90;;;;;;5095709;28;20031;-77
2022/01/17 08:32:57;;;;;;;45.47;22.00;;;-0.10;99.90;;;;;;5095212;28;20353;-77
2022/01/17 08:35:22;;;;;;;46.67;23.67;;;-0.10;99.90;;;;;;5095612;28;20024;-76
2022/01/17 08:37:48;;;;;;;43.00;20.73;;;-0.10;99.90;;;;;;5095434;28;20027;-77
2022/01/17 08:40:15;;;;;;;38.22;19.27;;;-0.10;99.90;;;;;;5095265;28;20031;-77
2022/01/17 08:42:41;;;;;;;42.40;20.55;;;0.00;99.90;;;;;;5076924;28;20498;-76
2022/01/17 08:45:10;;;;;;;45.47;21.30;;;0.00;99.90;;;;;;5095039;28;20028;-76
2022/01/17 08:47:36;;;;;;;34.45;18.77;;;0.00;99.90;;;;;;5094964;28;20077;-76
2022/01/17 08:50:05;;;;;;;38.03;17.88;;;0.10;99.90;;;;;;5095156;28;20032;-76
2022/01/17 08:52:30;;;;;;;34.60;18.70;;;0.10;99.90;;;;;;5094756;28;20111;-76
2022/01/17 08:54:57;;;;;;;34.75;18.17;;;0.10;99.90;;;;;;5075774;28;20115;-77
2022/01/17 08:57:24;;;;;;;32.28;16.77;;;0.20;99.90;;;;;;5094666;28;20050;-77
2022/01/17 08:59:50;;;;;;;37.85;20.38;;;0.20;99.90;;;;;;5076629;28;20506;-77
2022/01/17 09:02:16;;;;;;;37.10;19.50;;;0.20;99.90;;;;;;5095098;28;20034;-76
2022/01/17 09:04:42;;;;;;;29.58;14.95;;;0.20;99.90;;;;;;5095205;28;20112;-77
2022/01/17 09:07:15;;;;;;;28.35;14.90;;;0.30;99.90;;;;;;5094840;28;20432;-77
2022/01/17 09:09:42;;;;;;;28.02;14.02;;;0.30;99.90;;;;;;5076541;28;20115;-76
2022/01/17 09:12:09;;;;;;;30.95;14.07;;;0.30;99.90;;;;;;5094581;28;20468;-77
2022/01/17 09:14:36;;;;;;;29.70;15.65;;;0.40;99.90;;;;;;5094393;28;20032;-77
2022/01/17 09:17:03;;;;;;;31.20;15.10;;;0.50;99.90;;;;;;5094681;28;20028;-77
2022/01/17 09:19:29;;;;;;;28.13;15.15;;;0.50;99.90;;;;;;5094419;28;20049;-76
2022/01/17 09:21:55;;;;;;;36.60;16.38;;;0.60;99.90;;;;;;5094431;28;20016;-76
2022/01/17 09:24:21;;;;;;;28.58;15.02;;;0.60;99.90;;;;;;5094286;28;20039;-76
2022/01/17 09:26:47;;;;;;;32.35;15.90;;;0.60;99.90;;;;;;5094243;28;20032;-77
2022/01/17 09:29:13;;;;;;;31.30;15.40;;;0.70;99.90;;;;;;5094437;28;20020;-77
2022/01/17 09:31:39;;;;;;;32.10;15.52;;;0.70;99.90;;;;;;5094052;28;20051;-76
2022/01/17 09:34:04;;;;;;;32.70;15.30;;;0.80;99.90;;;;;;5093985;28;20032;-76
2022/01/17 09:36:33;;;;;;;31.23;16.95;;;0.80;99.90;;;;;;5093930;28;20020;-76
2022/01/17 09:39:00;;;;;;;30.52;14.50;;;0.80;99.90;;;;;;5094055;28;20026;-77
2022/01/17 09:41:26;;;;;;;27.67;14.98;;;0.90;99.90;;;;;;5076305;28;20024;-76
2022/01/17 09:43:52;;;;;;;31.13;16.27;;;1.00;99.90;;;;;;5094172;28;20118;-76
2022/01/17 09:46:23;;;;;;;33.38;16.30;;;1.10;99.90;;;;;;5075599;28;20035;-76
2022/01/17 09:48:50;;;;;;;29.00;15.55;;;1.10;99.90;;;;;;5094077;28;20019;-76
2022/01/17 09:52:01;;;;;;;30.80;16.88;;;1.20;99.90;;;;;;5093990;28;20024;-76
2022/01/17 09:54:07;;;;;;;29.05;14.20;;;1.20;99.90;;;;;;5093096;28;20032;-76
2022/01/17 09:56:34;;;;;;;26.83;14.52;;;1.30;99.90;;;;;;5075625;28;20081;-77
2022/01/17 09:58:59;;;;;;;32.25;15.90;;;1.30;99.90;;;;;;5093909;28;20088;-77
2022/01/17 10:01:26;;;;;;;40.65;20.13;;;1.40;99.90;;;;;;5094181;28;20448;-77
2022/01/17 10:03:56;;;;;;;39.97;19.83;;;1.40;99.90;;;;;;5093752;28;20032;-77
2022/01/17 10:06:23;;;;;;;41.28;19.75;;;1.40;99.90;;;;;;5093406;28;20103;-76
2022/01/17 10:09:07;;;;;;;40.20;19.40;;;1.50;99.90;;;;;;5093561;28;20035;-77
2022/01/17 10:11:33;;;;;;;32.33;16.85;;;1.60;99.90;;;;;;5093610;28;20392;-77
2022/01/17 10:13:59;;;;;;;32.45;16.63;;;1.70;99.90;;;;;;5093551;28;20025;-77
2022/01/17 10:16:26;;;;;;;44.40;20.33;;;1.80;99.90;;;;;;5093498;28;20023;-77
2022/01/17 10:19:01;;;;;;;30.67;15.68;;;1.90;99.90;;;;;;5093714;28;20468;-76
2022/01/17 10:21:49;;;;;;;32.45;17.08;;;2.00;99.90;;;;;;5093501;28;20020;-77
2022/01/17 10:37:31;;;;;;;31.87;16.07;;;2.30;99.90;;;;;;5070049;28;20119;-77
2022/01/17 10:40:06;;;;;;;26.48;14.02;;;2.40;99.90;;;;;;5093429;28;20078;-77
2022/01/17 10:42:45;;;;;;;27.77;15.18;;;2.40;99.90;;;;;;5074963;28;20567;-77
2022/01/17 10:45:16;;;;;;;29.48;15.55;;;2.40;99.90;;;;;;5093439;28;20040;-77
2022/01/17 10:47:43;;;;;;;24.13;13.95;;;2.50;99.90;;;;;;5093125;28;20031;-77
2022/01/17 10:50:12;;;;;;;25.58;13.85;;;2.50;99.90;;;;;;5093404;28;20028;-77
2022/01/17 10:52:44;;;;;;;27.50;13.98;;;2.60;99.90;;;;;;5075029;28;20020;-77
2022/01/17 10:55:22;;;;;;;27.70;14.68;;;2.50;99.90;;;;;;5093072;28;20024;-76
2022/01/17 10:57:54;;;;;;;26.88;15.68;;;2.60;99.90;;;;;;5093113;28;20020;-77
2022/01/17 11:00:25;;;;;;;30.38;15.90;;;2.70;99.90;;;;;;5093360;28;20016;-77
2022/01/17 11:02:53;;;;;;;24.88;13.45;;;2.70;99.90;;;;;;5093129;28;20048;-77
2022/01/17 11:05:22;;;;;;;22.23;12.82;;;2.70;99.90;;;;;;5092939;28;20060;-76
2022/01/17 11:07:50;;;;;;;23.75;12.07;;;2.70;99.90;;;;;;5075122;28;20031;-77
2022/01/17 11:10:22;;;;;;;25.88;13.85;;;2.70;99.90;;;;;;5093212;28;20156;-77
2022/01/17 11:12:50;;;;;;;30.70;16.20;;;2.70;99.90;;;;;;5092953;28;20025;-77
2022/01/17 11:15:16;;;;;;;28.65;15.93;;;2.70;99.90;;;;;;5093090;28;20433;-77
2022/01/17 11:18:05;;;;;;;23.92;15.18;;;2.70;99.90;;;;;;5094263;28;20385;-77
2022/01/17 11:20:34;;;;;;;32.05;16.55;;;2.70;99.90;;;;;;5096605;28;20104;-77
2022/01/17 11:23:01;;;;;;;27.25;15.10;;;2.70;99.90;;;;;;5097115;28;20016;-77
2022/01/17 11:25:32;;;;;;;26.52;15.05;;;2.70;99.90;;;;;;5096484;28;20021;-77
2022/01/17 11:28:00;;;;;;;29.08;14.88;;;2.70;99.90;;;;;;5096675;28;20410;-77
2022/01/17 11:30:26;;;;;;;24.35;13.90;;;2.80;99.90;;;;;;5096405;28;20036;-77
2022/01/17 11:32:55;;;;;;;22.55;12.88;;;2.80;99.90;;;;;;5078273;28;20021;-77
2022/01/17 11:35:22;;;;;;;22.63;12.65;;;2.80;99.90;;;;;;5096251;28;20085;-77
2022/01/17 11:37:52;;;;;;;19.55;10.73;;;2.80;99.90;;;;;;5078649;28;20081;-77
2022/01/17 11:40:22;;;;;;;7.50;3.92;;;2.80;99.90;;;;;;5096668;28;20023;-77
2022/01/17 11:42:52;;;;;;;2.63;1.30;;;2.90;99.90;;;;;;5078289;28;20028;-77
2022/01/17 11:45:23;;;;;;;3.75;2.00;;;3.10;99.90;;;;;;5096322;28;20540;-77
2022/01/17 11:47:53;;;;;;;3.88;1.58;;;3.40;99.90;;;;;;5096018;28;20024;-77
2022/01/17 11:50:32;;;;;;;3.15;1.52;;;3.60;99.90;;;;;;5096419;28;20032;-77
2022/01/17 11:53:21;;;;;;;2.30;1.02;;;3.80;99.90;;;;;;5096088;28;20456;-77
2022/01/17 11:55:49;;;;;;;3.75;1.40;;;4.00;99.90;;;;;;5096008;28;20016;-77
2022/01/17 11:58:42;;;;;;;4.15;1.38;;;4.10;99.90;;;;;;5095999;28;20392;-77
2022/01/17 12:01:20;;;;;;;6.05;1.33;;;4.20;99.90;;;;;;5096692;28;20019;-77
2022/01/17 12:03:50;;;;;;;2.80;0.93;;;4.30;99.90;;;;;;5095824;28;20032;-77
2022/01/17 12:06:22;;;;;;;2.47;1.00;;;4.40;99.90;;;;;;5077787;28;20503;-77
2022/01/17 12:09:07;;;;;;;2.90;1.40;;;4.40;99.90;;;;;;5096016;28;20028;-78
2022/01/17 12:11:33;;;;;;;5.20;3.10;;;4.50;99.90;;;;;;5095708;28;20024;-77
2022/01/17 12:14:22;;;;;;;3.13;1.60;;;4.50;99.90;;;;;;5096097;28;20028;-77
2022/01/17 12:16:49;;;;;;;2.50;1.10;;;4.50;99.90;;;;;;5077714;28;20020;-78
2022/01/17 12:19:14;;;;;;;2.17;1.23;;;4.60;99.90;;;;;;5095725;28;20430;-77
2022/01/17 12:21:47;;;;;;;2.65;1.10;;;4.60;99.90;;;;;;5096128;28;20028;-77
2022/01/17 12:24:30;;;;;;;2.58;1.23;;;4.60;99.90;;;;;;5078152;28;20028;-78
2022/01/17 12:27:01;;;;;;;1.90;0.85;;;4.60;99.90;;;;;;5096154;28;20027;-78
2022/01/17 12:29:40;;;;;;;2.65;1.00;;;4.60;99.90;;;;;;5076779;28;20020;-78
2022/01/17 12:32:08;;;;;;;2.72;1.10;;;4.60;99.90;;;;;;5096594;28;20349;-77
2022/01/17 12:34:43;;;;;;;4.13;0.80;;;4.70;99.90;;;;;;5077141;28;20020;-78
2022/01/17 12:37:27;;;;;;;2.55;0.88;;;4.70;99.90;;;;;;5095354;28;20084;-77
2022/01/17 12:40:12;;;;;;;1.88;0.90;;;4.60;99.90;;;;;;5096050;28;20027;-78
2022/01/17 12:42:59;;;;;;;2.25;0.98;;;4.60;99.90;;;;;;5095773;28;20099;-77
2022/01/17 12:45:38;;;;;;;1.45;0.70;;;4.60;99.90;;;;;;5093764;28;20024;-78
2022/01/17 12:48:21;;;;;;;1.52;1.13;;;4.50;99.90;;;;;;5085204;28;20543;-77
2022/01/17 12:50:48;;;;;;;1.70;0.82;;;4.50;99.90;;;;;;5056929;28;20024;-77
2022/01/17 12:53:18;;;;;;;1.55;0.80;;;4.50;99.60;;;;;;5074563;28;20472;-77
2022/01/17 12:55:45;;;;;;;1.40;0.80;;;4.60;99.20;;;;;;5056078;28;20032;-78
2022/01/17 12:58:11;;;;;;;1.90;0.90;;;4.50;99.50;;;;;;5073543;28;20365;-77
2022/01/17 13:00:37;;;;;;;4.40;1.80;;;4.60;99.60;;;;;;5074999;28;20028;-77
2022/01/17 13:03:03;;;;;;;47.50;19.52;;;4.60;99.20;;;;;;5075040;28;20028;-77
2022/01/17 13:05:31;;;;;;;18.25;8.60;;;4.60;99.90;;;;;;5056844;28;20024;-77
2022/01/17 13:08:04;;;;;;;4.03;1.98;;;4.60;99.90;;;;;;5074575;28;20031;-77